createdAt,value
2023-04-08T00:00:10.281Z,2.97
2023-04-08T00:02:50.140Z,2.30
2023-04-08T00:05:17.461Z,1.80
2023-04-08T00:07:44.798Z,3.10
2023-04-08T00:10:12.201Z,2.45
2023-04-08T00:12:40.196Z,1.55
2023-04-08T00:15:07.801Z,1.60
2023-04-08T00:17:35.205Z,2.38
2023-04-08T00:20:03.192Z,1.85
2023-04-08T00:22:31.025Z,2.38
2023-04-08T00:24:59.044Z,3.03
2023-04-08T00:27:26.322Z,1.67
2023-04-08T00:29:53.579Z,3.60
2023-04-08T00:32:20.948Z,2.47
2023-04-08T00:34:48.245Z,1.60
2023-04-08T00:37:15.747Z,1.70
2023-04-08T00:39:43.043Z,2.03
2023-04-08T00:42:10.471Z,4.88
2023-04-08T00:44:37.821Z,2.28
2023-04-08T00:47:05.196Z,3.40
2023-04-08T00:49:32.978Z,1.77
2023-04-08T00:52:00.925Z,3.22
2023-04-08T00:54:28.335Z,2.33
2023-04-08T00:56:56.296Z,2.83
2023-04-08T00:59:23.696Z,2.75
2023-04-08T01:01:58.478Z,1.60
2023-04-08T01:04:33.971Z,2.60
2023-04-08T01:09:46.417Z,1.75
2023-04-08T01:12:19.048Z,4.40
2023-04-08T01:14:47.700Z,1.58
2023-04-08T01:17:17.293Z,2.28
2023-04-08T01:19:46.847Z,4.65
2023-04-08T01:22:38.260Z,2.13
2023-04-08T01:25:09.541Z,1.45
2023-04-08T01:27:38.272Z,3.92
2023-04-08T01:30:07.161Z,1.58
2023-04-08T01:32:34.785Z,3.00
2023-04-08T01:35:03.284Z,1.50
2023-04-08T01:37:31.036Z,3.55
2023-04-08T01:39:59.222Z,3.40
2023-04-08T01:42:29.066Z,1.80
2023-04-08T01:44:58.392Z,2.50
2023-04-08T01:47:26.365Z,1.98
2023-04-08T01:49:53.863Z,4.00
2023-04-08T01:52:21.835Z,2.55
2023-04-08T01:54:49.219Z,3.65
2023-04-08T01:57:22.761Z,2.20
2023-04-08T01:59:53.793Z,2.95
2023-04-08T02:02:21.845Z,2.60
2023-04-08T02:04:49.286Z,3.97
2023-04-08T02:07:16.617Z,1.75
2023-04-08T02:09:44.483Z,4.88
2023-04-08T02:12:12.231Z,2.95
2023-04-08T02:14:39.641Z,3.70
2023-04-08T02:17:14.877Z,4.28
2023-04-08T02:19:53.295Z,4.07
2023-04-08T02:22:27.235Z,2.83
2023-04-08T02:24:55.857Z,4.68
2023-04-08T02:27:25.450Z,3.17
2023-04-08T02:29:54.837Z,4.00
2023-04-08T02:32:24.307Z,3.92
2023-04-08T02:34:51.699Z,3.10
2023-04-08T02:37:20.433Z,2.45
2023-04-08T02:39:48.284Z,4.20
2023-04-08T02:42:15.744Z,5.68
2023-04-08T02:44:43.095Z,3.13
2023-04-08T02:47:10.633Z,3.30
2023-04-08T02:49:37.933Z,5.05
2023-04-08T02:52:05.257Z,3.80
2023-04-08T02:54:32.574Z,5.15
2023-04-08T02:56:59.939Z,4.13
2023-04-08T02:59:27.295Z,3.80
2023-04-08T03:01:54.659Z,5.38
2023-04-08T03:04:21.967Z,4.93
2023-04-08T03:06:49.308Z,5.53
2023-04-08T03:09:17.346Z,4.97
2023-04-08T03:11:45.140Z,7.80
2023-04-08T03:14:12.476Z,5.55
2023-04-08T03:16:39.740Z,4.15
2023-04-08T03:19:06.936Z,4.53
2023-04-08T03:21:34.125Z,5.10
2023-04-08T03:24:01.453Z,4.05
2023-04-08T03:26:29.386Z,8.55
2023-04-08T03:28:56.694Z,5.57
2023-04-08T03:31:23.976Z,6.38
2023-04-08T03:33:51.426Z,2.95
2023-04-08T03:36:18.709Z,3.75
2023-04-08T03:38:46.160Z,4.45
2023-04-08T03:41:13.397Z,3.75
2023-04-08T03:43:40.749Z,2.97
2023-04-08T03:46:08.126Z,4.15
2023-04-08T03:48:35.618Z,5.57
2023-04-08T03:51:02.992Z,6.38
2023-04-08T03:53:31.077Z,3.45
2023-04-08T03:55:58.682Z,5.32
2023-04-08T03:58:26.242Z,3.42
2023-04-08T04:00:54.204Z,3.15
2023-04-08T04:03:21.800Z,4.50
2023-04-08T04:05:49.406Z,3.20
2023-04-08T04:08:16.941Z,4.43
2023-04-08T04:10:44.243Z,5.93
2023-04-08T04:13:11.536Z,3.55
2023-04-08T04:15:40.377Z,3.60
2023-04-08T04:18:08.392Z,4.95
2023-04-08T04:20:36.622Z,4.03
2023-04-08T04:23:03.960Z,6.15
2023-04-08T04:25:31.310Z,3.97
2023-04-08T04:27:58.676Z,3.97
2023-04-08T04:30:26.300Z,3.00
2023-04-08T04:32:53.769Z,4.63
2023-04-08T04:35:21.224Z,3.42
2023-04-08T04:37:50.431Z,6.07
2023-04-08T04:40:17.914Z,5.13
2023-04-08T04:43:16.581Z,5.15
2023-04-08T04:45:45.345Z,6.25
2023-04-08T04:48:12.778Z,4.38
2023-04-08T04:50:40.162Z,4.68
2023-04-08T04:53:07.433Z,8.40
2023-04-08T04:55:34.986Z,4.93
2023-04-08T04:58:02.743Z,3.15
2023-04-08T05:00:30.244Z,5.38
2023-04-08T05:02:57.677Z,5.93
2023-04-08T05:05:25.261Z,4.05
2023-04-08T05:07:53.088Z,6.30
2023-04-08T05:10:20.966Z,3.15
2023-04-08T05:12:48.291Z,3.65
2023-04-08T05:15:16.033Z,5.50
2023-04-08T05:17:43.355Z,3.47
2023-04-08T05:20:11.257Z,4.82
2023-04-08T05:22:38.690Z,3.60
2023-04-08T05:25:06.766Z,8.52
2023-04-08T05:27:34.099Z,4.20
2023-04-08T05:30:01.652Z,4.28
2023-04-08T05:32:30.806Z,6.40
2023-04-08T05:34:58.125Z,6.50
2023-04-08T05:37:25.572Z,3.70
2023-04-08T05:39:52.869Z,6.10
2023-04-08T05:42:20.472Z,6.55
2023-04-08T05:44:47.820Z,4.30
2023-04-08T05:47:15.430Z,4.45
2023-04-08T05:49:42.830Z,6.88
2023-04-08T05:52:10.308Z,6.70
2023-04-08T05:54:37.628Z,6.72
2023-04-08T05:57:05.021Z,4.40
2023-04-08T05:59:32.596Z,6.97
2023-04-08T06:02:00.153Z,5.10
2023-04-08T06:04:27.662Z,4.20
2023-04-08T06:06:55.038Z,3.97
2023-04-08T06:09:22.407Z,5.32
2023-04-08T06:11:51.095Z,3.90
2023-04-08T06:14:18.572Z,4.03
2023-04-08T06:16:46.220Z,3.67
2023-04-08T06:19:13.729Z,4.45
2023-04-08T06:21:41.248Z,5.32
2023-04-08T06:24:08.587Z,5.60
2023-04-08T06:26:35.906Z,5.18
2023-04-08T06:29:04.345Z,3.67
2023-04-08T06:31:31.847Z,4.78
2023-04-08T06:33:59.224Z,10.07
2023-04-08T06:36:26.673Z,3.40
2023-04-08T06:38:54.037Z,4.25
2023-04-08T06:41:21.480Z,3.63
2023-04-08T06:43:49.789Z,5.90
2023-04-08T06:46:17.110Z,6.45
2023-04-08T06:48:44.502Z,6.13
2023-04-08T06:51:12.175Z,6.10
2023-04-08T06:53:39.870Z,7.55
2023-04-08T06:56:07.509Z,4.18
2023-04-08T06:58:35.264Z,4.90
2023-04-08T07:01:03.599Z,6.53
2023-04-08T07:03:31.163Z,6.25
2023-04-08T07:05:58.572Z,5.80
2023-04-08T07:08:25.953Z,5.28
2023-04-08T07:10:54.145Z,6.80
2023-04-08T07:13:21.417Z,7.78
2023-04-08T07:15:48.859Z,6.30
2023-04-08T07:18:16.188Z,9.25
2023-04-08T07:20:43.535Z,8.93
2023-04-08T07:23:11.179Z,6.93
2023-04-08T07:25:38.902Z,8.43
2023-04-08T07:28:06.504Z,6.35
2023-04-08T07:30:33.901Z,4.60
2023-04-08T07:33:01.490Z,6.35
2023-04-08T07:35:29.449Z,4.28
2023-04-08T07:37:58.104Z,3.92
2023-04-08T07:40:25.906Z,3.72
2023-04-08T07:42:53.464Z,3.85
2023-04-08T07:45:21.284Z,3.33
2023-04-08T07:47:48.893Z,4.88
2023-04-08T07:50:16.181Z,5.45
2023-04-08T07:52:43.504Z,6.90
2023-04-08T07:55:11.263Z,3.72
2023-04-08T07:57:39.984Z,3.40
2023-04-08T08:00:07.997Z,3.42
2023-04-08T08:02:43.038Z,6.50
2023-04-08T08:05:10.515Z,4.85
2023-04-08T08:07:37.800Z,7.93
2023-04-08T08:10:05.424Z,3.92
2023-04-08T08:12:32.830Z,2.50
2023-04-08T08:15:00.255Z,4.43
2023-04-08T08:17:30.435Z,4.47
2023-04-08T08:19:58.107Z,3.03
2023-04-08T08:22:25.767Z,4.35
2023-04-08T08:24:58.045Z,4.72
2023-04-08T08:27:25.808Z,4.63
2023-04-08T08:29:53.114Z,4.28
2023-04-08T08:32:20.342Z,6.13
2023-04-08T08:34:47.630Z,4.22
2023-04-08T08:37:14.993Z,5.35
2023-04-08T08:39:42.582Z,3.85
2023-04-08T08:42:26.459Z,3.55
2023-04-08T08:44:55.207Z,3.58
2023-04-08T08:47:22.578Z,5.38
2023-04-08T08:49:50.100Z,7.50
2023-04-08T08:52:18.350Z,3.20
2023-04-08T08:54:46.639Z,3.20
2023-04-08T08:57:19.037Z,4.00
2023-04-08T09:00:18.659Z,2.90
2023-04-08T09:02:46.197Z,5.55
2023-04-08T09:05:13.872Z,3.95
2023-04-08T09:07:41.298Z,3.35
2023-04-08T09:10:09.634Z,6.18
2023-04-08T09:12:54.182Z,2.50
2023-04-08T09:15:21.826Z,3.35
2023-04-08T09:18:05.179Z,2.80
2023-04-08T09:23:03.001Z,3.40
2023-04-08T09:25:33.222Z,2.95
2023-04-08T09:28:03.342Z,3.13
2023-04-08T09:30:47.384Z,2.58
2023-04-08T09:33:15.142Z,3.60
2023-04-08T09:35:44.198Z,2.38
2023-04-08T09:38:12.027Z,3.20
2023-04-08T09:40:41.908Z,3.63
2023-04-08T09:43:10.101Z,3.10
2023-04-08T09:45:39.416Z,3.50
2023-04-08T09:50:49.222Z,2.67
2023-04-08T09:53:23.274Z,8.93
2023-04-08T09:55:52.466Z,5.82
2023-04-08T09:58:25.662Z,5.70
2023-04-08T10:00:54.550Z,6.15
2023-04-08T10:03:34.829Z,3.75
2023-04-08T10:06:03.759Z,2.30
2023-04-08T10:08:31.825Z,3.53
2023-04-08T10:10:59.385Z,2.20
2023-04-08T10:13:28.982Z,4.05
2023-04-08T10:19:15.103Z,3.35
2023-04-08T10:21:48.356Z,3.08
2023-04-08T10:24:16.268Z,3.78
2023-04-08T10:26:44.882Z,4.50
2023-04-08T10:31:58.097Z,3.42
2023-04-08T10:34:26.901Z,4.22
2023-04-08T10:36:56.137Z,2.92
2023-04-08T10:39:26.184Z,4.10
2023-04-08T10:41:53.988Z,3.90
2023-04-08T10:44:24.625Z,4.50
2023-04-08T10:46:53.233Z,3.50
2023-04-08T10:49:22.277Z,3.50
2023-04-08T10:51:49.765Z,3.17
2023-04-08T10:54:18.540Z,4.68
2023-04-08T10:56:51.007Z,3.38
2023-04-08T10:59:28.344Z,2.95
2023-04-08T11:01:55.988Z,3.90
2023-04-08T11:04:23.952Z,3.65
2023-04-08T11:06:51.857Z,4.20
2023-04-08T11:09:19.259Z,4.03
2023-04-08T11:11:47.180Z,8.60
2023-04-08T11:14:14.574Z,6.70
2023-04-08T11:16:42.053Z,4.03
2023-04-08T11:19:09.475Z,5.22
2023-04-08T11:21:37.830Z,6.95
2023-04-08T11:24:12.377Z,5.75
2023-04-08T11:26:40.086Z,4.53
2023-04-08T11:29:07.567Z,8.18
2023-04-08T11:31:35.226Z,7.50
2023-04-08T11:34:02.651Z,4.40
2023-04-08T11:36:30.557Z,4.38
2023-04-08T11:38:57.913Z,6.38
2023-04-08T11:41:25.411Z,4.53
2023-04-08T11:43:56.169Z,5.32
2023-04-08T11:46:24.407Z,3.53
2023-04-08T11:49:00.744Z,4.63
2023-04-08T11:51:29.317Z,4.50
2023-04-08T11:53:57.153Z,6.30
2023-04-08T11:56:25.316Z,5.75
2023-04-08T11:58:53.129Z,5.13
2023-04-08T12:01:21.314Z,5.05
2023-04-08T12:04:05.102Z,7.25
2023-04-08T12:06:32.878Z,5.80
2023-04-08T12:09:00.357Z,5.00
2023-04-08T12:11:27.676Z,4.97
2023-04-08T12:13:55.103Z,5.45
2023-04-08T12:16:22.525Z,5.00
2023-04-08T12:18:50.826Z,4.47
2023-04-08T12:21:18.357Z,7.85
2023-04-08T12:23:45.903Z,5.32
2023-04-08T12:26:13.783Z,4.80
2023-04-08T12:28:41.259Z,3.45
2023-04-08T12:31:08.784Z,4.72
2023-04-08T12:33:36.540Z,5.90
2023-04-08T12:36:04.151Z,6.55
2023-04-08T12:38:31.644Z,5.53
2023-04-08T12:40:58.923Z,5.93
2023-04-08T12:43:26.395Z,5.75
2023-04-08T12:45:53.839Z,4.22
2023-04-08T12:48:21.228Z,5.65
2023-04-08T12:50:48.605Z,6.22
2023-04-08T12:53:15.934Z,5.80
2023-04-08T12:55:44.545Z,5.45
2023-04-08T12:58:12.269Z,4.03
2023-04-08T13:00:40.589Z,2.90
2023-04-08T13:03:08.568Z,6.10
2023-04-08T13:05:43.190Z,4.13
2023-04-08T13:08:13.108Z,5.07
2023-04-08T13:10:42.358Z,4.20
2023-04-08T13:13:09.961Z,4.68
2023-04-08T13:15:37.427Z,4.13
2023-04-08T13:18:05.434Z,4.13
2023-04-08T13:20:33.829Z,4.20
2023-04-08T13:23:01.643Z,3.92
2023-04-08T13:25:29.403Z,3.80
2023-04-08T13:27:57.008Z,2.90
2023-04-08T13:30:24.438Z,5.30
2023-04-08T13:32:51.793Z,7.50
2023-04-08T13:35:19.124Z,5.78
2023-04-08T13:37:46.406Z,4.72
2023-04-08T13:40:14.039Z,5.35
2023-04-08T13:42:41.975Z,4.20
2023-04-08T13:45:09.684Z,4.03
2023-04-08T13:47:38.064Z,4.47
2023-04-08T13:50:07.195Z,4.80
2023-04-08T13:52:34.835Z,6.32
2023-04-08T13:55:03.118Z,5.43
2023-04-08T13:57:31.755Z,8.18
2023-04-08T13:59:59.072Z,6.65
2023-04-08T14:02:27.241Z,5.72
2023-04-08T14:04:54.800Z,4.95
2023-04-08T14:07:22.276Z,6.90
2023-04-08T14:09:49.848Z,7.88
2023-04-08T14:12:17.230Z,7.30
2023-04-08T14:14:44.670Z,7.30
2023-04-08T14:17:12.263Z,4.97
2023-04-08T14:19:40.239Z,4.55
2023-04-08T14:22:08.173Z,7.40
2023-04-08T14:24:35.857Z,6.95
2023-04-08T14:27:04.023Z,8.07
2023-04-08T14:29:31.577Z,7.53
2023-04-08T14:31:59.459Z,6.82
2023-04-08T14:34:27.568Z,6.47
2023-04-08T14:36:54.922Z,8.60
2023-04-08T14:39:22.336Z,7.22
2023-04-08T14:41:49.658Z,5.18
2023-04-08T14:44:17.011Z,6.10
2023-04-08T14:46:44.386Z,6.68
2023-04-08T14:49:11.764Z,5.72
2023-04-08T14:51:39.157Z,6.22
2023-04-08T14:54:06.541Z,7.32
2023-04-08T14:56:34.021Z,7.57
2023-04-08T14:59:01.500Z,6.20
2023-04-08T15:01:32.024Z,5.13
2023-04-08T15:04:00.255Z,7.28
2023-04-08T15:06:28.003Z,6.75
2023-04-08T15:08:55.374Z,7.95
2023-04-08T15:11:24.161Z,5.47
2023-04-08T15:13:51.742Z,6.57
2023-04-08T15:16:19.425Z,8.00
2023-04-08T15:18:47.066Z,8.18
2023-04-08T15:21:14.381Z,13.52
2023-04-08T15:23:43.708Z,9.32
2023-04-08T15:26:11.605Z,10.63
2023-04-08T15:28:40.588Z,9.00
2023-04-08T15:31:07.960Z,10.32
2023-04-08T15:33:35.862Z,9.52
2023-04-08T15:36:04.418Z,10.23
2023-04-08T15:38:33.790Z,11.95
2023-04-08T15:41:01.159Z,12.27
2023-04-08T15:43:28.696Z,12.63
2023-04-08T15:45:56.141Z,13.85
2023-04-08T15:48:23.397Z,11.48
2023-04-08T15:50:51.151Z,10.63
2023-04-08T15:53:18.493Z,10.10
2023-04-08T15:55:45.849Z,11.35
2023-04-08T15:58:13.262Z,11.68
2023-04-08T16:00:40.663Z,12.15
2023-04-08T16:03:12.293Z,11.73
2023-04-08T16:05:41.862Z,10.57
2023-04-08T16:08:09.148Z,10.10
2023-04-08T16:10:36.524Z,9.80
2023-04-08T16:13:03.861Z,10.13
2023-04-08T16:15:31.732Z,12.45
2023-04-08T16:17:59.063Z,12.68
2023-04-08T16:20:27.463Z,11.57
2023-04-08T16:22:55.154Z,8.90
2023-04-08T16:25:22.498Z,12.23
2023-04-08T16:27:49.892Z,11.18
2023-04-08T16:30:17.446Z,12.40
2023-04-08T16:32:45.242Z,10.90
2023-04-08T16:35:13.483Z,10.52
2023-04-08T16:37:41.238Z,12.10
2023-04-08T16:40:09.158Z,9.73
2023-04-08T16:42:36.499Z,9.88
2023-04-08T16:45:04.176Z,13.85
2023-04-08T16:47:31.894Z,15.25
2023-04-08T16:49:59.279Z,16.70
2023-04-08T16:52:26.639Z,21.25
2023-04-08T16:54:54.941Z,21.65
2023-04-08T16:57:22.818Z,18.08
2023-04-08T16:59:50.204Z,19.08
2023-04-08T17:02:17.746Z,23.17
2023-04-08T17:04:45.215Z,20.27
2023-04-08T17:07:14.451Z,32.72
2023-04-08T17:09:42.026Z,23.30
2023-04-08T17:12:10.385Z,25.63
2023-04-08T17:14:38.200Z,23.23
2023-04-08T17:17:05.918Z,25.92
2023-04-08T17:19:33.371Z,24.98
2023-04-08T17:22:00.942Z,32.58
2023-04-08T17:24:28.433Z,30.40
2023-04-08T17:26:57.844Z,25.67
2023-04-08T17:29:25.186Z,21.25
2023-04-08T17:31:52.871Z,25.45
2023-04-08T17:34:20.624Z,22.17
2023-04-08T17:36:47.924Z,21.13
2023-04-08T17:39:15.302Z,20.52
2023-04-08T17:41:45.720Z,18.38
2023-04-08T17:44:13.371Z,19.15
2023-04-08T17:46:41.277Z,19.13
2023-04-08T17:49:11.530Z,13.52
2023-04-08T17:51:38.800Z,14.52
2023-04-08T17:54:06.213Z,18.05
2023-04-08T17:56:33.640Z,15.57
2023-04-08T17:59:00.998Z,15.57
2023-04-08T18:01:28.233Z,16.58
2023-04-08T18:03:56.295Z,16.63
2023-04-08T18:06:23.783Z,17.80
2023-04-08T18:08:51.097Z,12.05
2023-04-08T18:11:18.677Z,16.80
2023-04-08T18:13:46.344Z,19.70
2023-04-08T18:16:18.335Z,18.50
2023-04-08T18:18:45.695Z,16.98
2023-04-08T18:21:13.551Z,16.40
2023-04-08T18:23:41.393Z,20.20
2023-04-08T18:26:08.959Z,15.85
2023-04-08T18:28:36.660Z,14.07
2023-04-08T18:31:04.192Z,16.35
2023-04-08T18:33:31.580Z,20.88
2023-04-08T18:36:06.689Z,16.85
2023-04-08T18:38:36.384Z,14.95
2023-04-08T18:41:04.720Z,19.33
2023-04-08T18:43:32.407Z,15.90
2023-04-08T18:46:00.385Z,16.58
2023-04-08T18:48:27.855Z,17.13
2023-04-08T18:50:55.175Z,13.57
2023-04-08T18:53:23.407Z,15.52
2023-04-08T18:55:52.001Z,15.10
2023-04-08T18:58:19.210Z,12.02
2023-04-08T19:00:46.553Z,14.27
2023-04-08T19:03:14.052Z,11.18
2023-04-08T19:05:41.369Z,11.48
2023-04-08T19:08:08.711Z,12.20
2023-04-08T19:10:36.798Z,12.07
2023-04-08T19:13:04.187Z,11.20
2023-04-08T19:15:31.857Z,13.38
2023-04-08T19:17:59.292Z,12.38
2023-04-08T19:20:27.551Z,11.30
2023-04-08T19:22:56.107Z,10.32
2023-04-08T19:25:23.521Z,12.05
2023-04-08T19:27:51.354Z,12.32
2023-04-08T19:30:18.790Z,12.82
2023-04-08T19:32:47.210Z,12.23
2023-04-08T19:35:14.874Z,14.20
2023-04-08T19:37:42.367Z,12.32
2023-04-08T19:40:10.413Z,9.75
2023-04-08T19:42:37.702Z,12.13
2023-04-08T19:45:06.470Z,10.75
2023-04-08T19:47:33.982Z,12.20
2023-04-08T19:50:01.591Z,11.02
2023-04-08T19:52:31.636Z,11.18
2023-04-08T19:54:58.979Z,11.75
2023-04-08T19:57:26.687Z,13.55
2023-04-08T19:59:54.482Z,11.38
2023-04-08T20:02:22.490Z,14.68
2023-04-08T20:04:49.795Z,11.13
2023-04-08T20:07:17.072Z,11.63
2023-04-08T20:09:44.448Z,12.30
2023-04-08T20:12:12.355Z,13.95
2023-04-08T20:14:42.428Z,12.10
2023-04-08T20:17:09.784Z,10.45
2023-04-08T20:19:37.149Z,15.40
2023-04-08T20:22:04.634Z,14.20
2023-04-08T20:24:31.988Z,14.27
2023-04-08T20:27:00.224Z,13.43
2023-04-08T20:29:28.808Z,12.63
2023-04-08T20:31:56.222Z,13.43
2023-04-08T20:34:23.508Z,13.60
2023-04-08T20:36:51.220Z,13.82
2023-04-08T20:39:18.780Z,19.77
2023-04-08T20:41:46.249Z,16.20
2023-04-08T20:44:13.642Z,16.02
2023-04-08T20:46:41.377Z,15.32
2023-04-08T20:49:08.850Z,14.13
2023-04-08T20:51:36.173Z,15.95
2023-04-08T20:54:03.803Z,16.80
2023-04-08T20:56:31.226Z,16.27
2023-04-08T20:59:00.336Z,15.60
2023-04-08T21:01:28.034Z,18.85
2023-04-08T21:03:56.240Z,15.23
2023-04-08T21:06:23.881Z,18.38
2023-04-08T21:08:51.625Z,16.13
2023-04-08T21:11:19.250Z,16.95
2023-04-08T21:13:48.874Z,15.15
2023-04-08T21:16:16.843Z,16.77
2023-04-08T21:18:44.198Z,15.68
2023-04-08T21:21:11.594Z,14.77
2023-04-08T21:23:38.912Z,16.95
2023-04-08T21:26:13.895Z,15.02
2023-04-08T21:28:41.302Z,16.70
2023-04-08T21:31:10.304Z,15.55
2023-04-08T21:33:37.663Z,15.68
2023-04-08T21:36:06.573Z,14.75
2023-04-08T21:38:34.195Z,14.82
2023-04-08T21:41:01.546Z,14.95
2023-04-08T21:43:28.902Z,13.85
2023-04-08T21:45:56.376Z,17.13
2023-04-08T21:48:23.916Z,15.43
2023-04-08T21:50:51.213Z,16.88
2023-04-08T21:53:18.552Z,17.08
2023-04-08T21:55:45.888Z,15.75
2023-04-08T21:58:13.262Z,16.48
2023-04-08T22:00:40.805Z,16.10
2023-04-08T22:03:08.194Z,17.08
2023-04-08T22:05:35.658Z,18.15
2023-04-08T22:08:03.053Z,15.27
2023-04-08T22:10:30.353Z,18.10
2023-04-08T22:12:57.718Z,15.02
2023-04-08T22:15:25.021Z,17.85
2023-04-08T22:17:53.418Z,15.48
2023-04-08T22:20:20.780Z,15.77
2023-04-08T22:22:48.106Z,11.88
2023-04-08T22:25:15.586Z,18.73
2023-04-08T22:27:42.855Z,15.98
2023-04-08T22:30:10.700Z,15.52
2023-04-08T22:32:38.052Z,15.43
2023-04-08T22:35:06.086Z,13.65
2023-04-08T22:37:33.457Z,14.48
2023-04-08T22:40:01.323Z,15.35
2023-04-08T22:42:29.924Z,15.13
2023-04-08T22:44:57.417Z,13.38
2023-04-08T22:47:24.672Z,14.82
2023-04-08T22:49:51.967Z,15.02
2023-04-08T22:52:19.266Z,20.33
2023-04-08T22:54:46.551Z,15.30
2023-04-08T22:57:13.803Z,13.95
2023-04-08T22:59:41.225Z,12.52
2023-04-08T23:02:08.590Z,13.50
2023-04-08T23:04:35.973Z,17.55
2023-04-08T23:07:03.307Z,13.55
2023-04-08T23:09:30.662Z,14.73
2023-04-08T23:11:58.490Z,14.40
2023-04-08T23:14:26.035Z,17.85
2023-04-08T23:16:53.372Z,15.20
2023-04-08T23:19:20.920Z,14.32
2023-04-08T23:21:48.224Z,14.73
2023-04-08T23:24:15.624Z,18.73
2023-04-08T23:26:42.931Z,15.90
2023-04-08T23:29:10.920Z,17.20
2023-04-08T23:31:38.362Z,15.38
2023-04-08T23:34:05.866Z,13.73
2023-04-08T23:36:33.430Z,16.08
2023-04-08T23:39:00.875Z,15.73
2023-04-08T23:41:28.266Z,15.50
2023-04-08T23:43:55.469Z,12.55
2023-04-08T23:46:22.859Z,19.08
2023-04-08T23:48:50.538Z,18.80
2023-04-08T23:51:18.054Z,18.80
2023-04-08T23:53:45.404Z,13.80
2023-04-08T23:56:12.697Z,14.75
2023-04-08T23:58:40.066Z,16.75
